createdAt,value
2023-05-02T00:00:28.040Z,98643.09
2023-05-02T00:03:30.642Z,98646.63
2023-05-02T00:06:35.429Z,98651.28
2023-05-02T00:09:38.054Z,98649.66
2023-05-02T00:12:40.520Z,98645.00
2023-05-02T00:15:43.222Z,98642.56
2023-05-02T00:18:45.719Z,98638.97
2023-05-02T00:21:49.999Z,98643.16
2023-05-02T00:24:57.313Z,98643.50
2023-05-02T00:27:59.879Z,98642.75
2023-05-02T00:31:02.607Z,98641.47
2023-05-02T00:34:05.190Z,98640.06
2023-05-02T00:37:09.061Z,98638.66
2023-05-02T00:40:12.651Z,98640.13
2023-05-02T00:43:15.117Z,98647.13
2023-05-02T00:46:17.983Z,98646.53
2023-05-02T00:49:20.911Z,98642.47
2023-05-02T00:52:24.753Z,98641.03
2023-05-02T00:55:27.284Z,98647.13
2023-05-02T00:58:30.704Z,98653.56
2023-05-02T01:01:38.198Z,98648.47
2023-05-02T01:04:45.729Z,98651.94
2023-05-02T01:07:59.722Z,98647.94
2023-05-02T01:11:07.828Z,98649.06
2023-05-02T01:14:12.547Z,98653.56
2023-05-02T01:17:16.635Z,98657.41
2023-05-02T01:20:21.605Z,98657.59
2023-05-02T01:23:31.454Z,98661.13
2023-05-02T01:26:37.536Z,98671.84
2023-05-02T01:29:42.327Z,98664.75
2023-05-02T01:32:47.270Z,98659.44
2023-05-02T01:35:51.736Z,98670.31
2023-05-02T01:38:56.326Z,98663.56
2023-05-02T01:41:59.153Z,98661.00
2023-05-02T01:45:04.269Z,98655.00
2023-05-02T01:48:07.851Z,98663.63
2023-05-02T01:51:10.676Z,98658.59
2023-05-02T01:54:14.335Z,98667.38
2023-05-02T01:57:16.711Z,98669.00
2023-05-02T02:00:21.460Z,98668.50
2023-05-02T02:03:24.627Z,98668.81
2023-05-02T02:06:27.788Z,98669.63
2023-05-02T02:09:30.602Z,98671.66
2023-05-02T02:12:37.038Z,98674.72
2023-05-02T02:15:41.209Z,98675.50
2023-05-02T02:18:45.802Z,98678.34
2023-05-02T02:21:49.225Z,98687.69
2023-05-02T02:24:54.526Z,98692.28
2023-05-02T02:27:57.668Z,98696.75
2023-05-02T02:31:02.406Z,98703.72
2023-05-02T02:34:04.956Z,98701.44
2023-05-02T02:37:11.865Z,98711.69
2023-05-02T02:40:25.034Z,98707.06
2023-05-02T02:43:34.058Z,98718.47
2023-05-02T02:46:50.066Z,98710.91
2023-05-02T02:49:59.785Z,98717.78
2023-05-02T02:53:04.281Z,98725.53
2023-05-02T02:56:08.011Z,98730.19
2023-05-02T02:59:15.280Z,98738.06
2023-05-02T03:02:19.994Z,98741.66
2023-05-02T03:05:23.646Z,98747.06
2023-05-02T03:08:26.076Z,98756.94
2023-05-02T03:11:29.587Z,98753.78
2023-05-02T03:14:32.055Z,98759.81
2023-05-02T03:17:36.024Z,98757.00
2023-05-02T03:20:38.906Z,98758.69
2023-05-02T03:23:41.411Z,98766.44
2023-05-02T03:26:43.905Z,98769.97
2023-05-02T03:29:46.413Z,98776.25
2023-05-02T03:32:50.526Z,98771.69
2023-05-02T03:35:53.143Z,98783.25
2023-05-02T03:38:55.954Z,98786.38
2023-05-02T03:41:59.508Z,98788.47
2023-05-02T03:45:02.068Z,98791.38
2023-05-02T03:48:06.318Z,98799.38
2023-05-02T03:51:09.919Z,98806.31
2023-05-02T03:54:12.396Z,98808.78
2023-05-02T03:57:15.062Z,98807.72
2023-05-02T04:00:17.829Z,98806.81
2023-05-02T04:03:22.573Z,98813.94
2023-05-02T04:06:25.275Z,98815.25
2023-05-02T04:09:27.781Z,98823.47
2023-05-02T04:12:30.760Z,98823.34
2023-05-02T04:15:33.414Z,98825.28
2023-05-02T04:18:37.306Z,98831.59
2023-05-02T04:21:39.823Z,98823.34
2023-05-02T04:24:42.470Z,98828.81
2023-05-02T04:27:45.347Z,98831.41
2023-05-02T04:30:48.079Z,98828.41
2023-05-02T04:33:52.063Z,98834.38
2023-05-02T04:36:54.636Z,98836.47
2023-05-02T04:39:57.331Z,98836.81
2023-05-02T04:42:59.917Z,98840.34
2023-05-02T04:46:02.474Z,98843.19
2023-05-02T04:49:06.473Z,98840.13
2023-05-02T04:52:08.999Z,98842.34
2023-05-02T04:55:11.522Z,98845.28
2023-05-02T04:58:14.099Z,98852.38
2023-05-02T05:01:17.666Z,98845.47
2023-05-02T05:04:21.647Z,98853.88
2023-05-02T05:07:25.699Z,98851.97
2023-05-02T05:10:28.310Z,98856.47
2023-05-02T05:13:30.817Z,98866.59
2023-05-02T05:16:33.443Z,98872.41
2023-05-02T05:19:37.295Z,98877.69
2023-05-02T05:22:41.419Z,98885.41
2023-05-02T05:25:45.750Z,98896.13
2023-05-02T05:28:48.517Z,98905.72
2023-05-02T05:31:51.115Z,98906.66
2023-05-02T05:34:55.007Z,98910.94
2023-05-02T05:37:57.611Z,98914.53
2023-05-02T05:41:00.143Z,98919.97
2023-05-02T05:44:02.653Z,98920.31
2023-05-02T05:47:05.307Z,98929.25
2023-05-02T05:50:10.885Z,98916.38
2023-05-02T05:53:13.850Z,98930.59
2023-05-02T05:56:16.413Z,98928.19
2023-05-02T05:59:19.031Z,98934.66
2023-05-02T06:02:21.666Z,98934.06
2023-05-02T06:05:25.569Z,98944.09
2023-05-02T06:08:28.363Z,98945.25
2023-05-02T06:11:31.092Z,98945.41
2023-05-02T06:14:33.630Z,98951.22
2023-05-02T06:17:36.174Z,98957.19
2023-05-02T06:20:40.071Z,98957.28
2023-05-02T06:23:42.727Z,98964.41
2023-05-02T06:26:46.200Z,98966.63
2023-05-02T06:29:48.674Z,98976.84
2023-05-02T06:32:51.525Z,98977.34
2023-05-02T06:35:55.607Z,98978.16
2023-05-02T06:38:58.115Z,98980.13
2023-05-02T06:42:01.427Z,98983.50
2023-05-02T06:45:04.305Z,98987.28
2023-05-02T06:48:07.480Z,98986.13
2023-05-02T06:51:11.551Z,98993.13
2023-05-02T06:54:14.842Z,98992.41
2023-05-02T06:57:17.488Z,99007.38
2023-05-02T07:00:20.845Z,99000.59
2023-05-02T07:03:23.614Z,99006.28
2023-05-02T07:06:27.883Z,99014.47
2023-05-02T07:09:30.846Z,99009.56
2023-05-02T07:12:33.656Z,99014.00
2023-05-02T07:15:36.165Z,99020.13
2023-05-02T07:18:38.731Z,99024.16
2023-05-02T07:21:42.773Z,99033.38
2023-05-02T07:24:45.562Z,99037.84
2023-05-02T07:27:48.145Z,99035.34
2023-05-02T07:30:50.622Z,99038.34
2023-05-02T07:33:53.174Z,99041.66
2023-05-02T07:36:57.374Z,99043.28
2023-05-02T07:40:00.349Z,99036.69
2023-05-02T07:43:03.499Z,99040.81
2023-05-02T07:46:06.808Z,99029.25
2023-05-02T07:49:09.428Z,99035.81
2023-05-02T07:52:13.323Z,99039.59
2023-05-02T07:55:16.161Z,99048.47
2023-05-02T07:58:18.679Z,99054.78
2023-05-02T08:01:21.300Z,99050.56
2023-05-02T08:04:24.014Z,99063.09
2023-05-02T08:07:28.092Z,99064.31
2023-05-02T08:10:30.861Z,99071.19
2023-05-02T08:13:33.372Z,99080.13
2023-05-02T08:16:36.207Z,99075.97
2023-05-02T08:19:38.910Z,99080.44
2023-05-02T08:22:42.780Z,99081.31
2023-05-02T08:25:45.415Z,99080.63
2023-05-02T08:28:47.958Z,99078.91
2023-05-02T08:31:50.589Z,99079.66
2023-05-02T08:34:56.168Z,99083.34
2023-05-02T08:37:59.992Z,99092.25
2023-05-02T08:41:02.828Z,99085.56
2023-05-02T08:44:07.523Z,99086.06
2023-05-02T08:47:12.212Z,99085.03
2023-05-02T08:50:16.965Z,99093.00
2023-05-02T08:53:21.198Z,99093.28
2023-05-02T08:56:25.199Z,99094.34
2023-05-02T08:59:27.900Z,99103.06
2023-05-02T09:02:43.365Z,99087.03
2023-05-02T09:05:48.177Z,99090.44
2023-05-02T09:08:53.331Z,99096.78
2023-05-02T09:11:55.950Z,99095.38
2023-05-02T09:15:19.207Z,99094.88
2023-05-02T09:18:23.683Z,99105.44
2023-05-02T09:21:27.465Z,99106.50
2023-05-02T09:24:31.353Z,99099.03
2023-05-02T09:27:55.832Z,99100.53
2023-05-02T09:31:08.183Z,99098.34
2023-05-02T09:34:11.782Z,99091.72
2023-05-02T09:37:37.304Z,99105.88
2023-05-02T09:40:54.511Z,99099.91
2023-05-02T09:43:58.084Z,99100.78
2023-05-02T09:47:02.171Z,99095.88
2023-05-02T09:50:06.330Z,99092.56
2023-05-02T09:53:11.234Z,99096.91
2023-05-02T09:56:15.269Z,99096.00
2023-05-02T09:59:18.372Z,99096.69
2023-05-02T10:02:21.864Z,99101.91
2023-05-02T10:05:24.943Z,99094.25
2023-05-02T10:08:28.586Z,99103.22
2023-05-02T10:11:32.892Z,99104.56
2023-05-02T10:14:41.264Z,99112.31
2023-05-02T10:17:50.521Z,99115.66
2023-05-02T10:20:57.860Z,99118.66
2023-05-02T10:24:03.413Z,99113.28
2023-05-02T10:27:07.625Z,99114.22
2023-05-02T10:30:10.726Z,99106.69
2023-05-02T10:33:14.871Z,99097.75
2023-05-02T10:36:22.417Z,99095.00
2023-05-02T10:39:25.200Z,99101.97
2023-05-02T10:42:29.480Z,99097.16
2023-05-02T10:45:33.173Z,99089.19
2023-05-02T10:48:35.764Z,99093.41
2023-05-02T10:51:39.512Z,99091.97
2023-05-02T10:54:42.128Z,99086.78
2023-05-02T10:58:23.467Z,99082.72
2023-05-02T11:01:42.078Z,99074.59
2023-05-02T11:05:01.933Z,99076.09
2023-05-02T11:08:32.959Z,99078.75
2023-05-02T11:11:43.166Z,99075.69
2023-05-02T11:14:49.625Z,99073.03
2023-05-02T11:18:01.892Z,99074.03
2023-05-02T11:21:29.584Z,99061.75
2023-05-02T11:24:39.449Z,99056.91
2023-05-02T11:27:43.914Z,99077.38
2023-05-02T11:30:48.726Z,99077.66
2023-05-02T11:33:57.526Z,99075.44
2023-05-02T11:37:00.267Z,99079.19
2023-05-02T11:40:11.929Z,99073.59
2023-05-02T11:43:15.700Z,99070.16
2023-05-02T11:46:21.059Z,99072.94
2023-05-02T11:49:23.921Z,99066.09
2023-05-02T11:52:26.689Z,99049.00
2023-05-02T11:55:29.416Z,99065.06
2023-05-02T11:58:33.867Z,99067.06
2023-05-02T12:01:38.192Z,99066.53
2023-05-02T12:04:43.745Z,99067.53
2023-05-02T12:07:49.168Z,99058.84
2023-05-02T12:10:53.442Z,99067.06
2023-05-02T12:13:56.056Z,99059.31
2023-05-02T12:17:00.814Z,99048.63
2023-05-02T12:20:05.211Z,99064.50
2023-05-02T12:23:08.000Z,99055.72
2023-05-02T12:26:21.320Z,99052.09
2023-05-02T12:29:23.855Z,99057.66
2023-05-02T12:32:32.370Z,99066.41
2023-05-02T12:35:36.098Z,99061.63
2023-05-02T12:38:38.699Z,99069.22
2023-05-02T12:41:43.770Z,99072.38
2023-05-02T12:44:48.222Z,99077.78
2023-05-02T12:47:52.200Z,99073.50
2023-05-02T12:50:56.039Z,99076.50
2023-05-02T12:53:58.670Z,99081.69
2023-05-02T12:57:08.778Z,99087.44
2023-05-02T13:00:13.143Z,99092.75
2023-05-02T13:03:17.050Z,99071.69
2023-05-02T13:06:19.848Z,99087.00
2023-05-02T13:09:22.375Z,99078.03
2023-05-02T13:12:24.910Z,99074.50
2023-05-02T13:15:27.521Z,99087.81
2023-05-02T13:18:31.578Z,99087.59
2023-05-02T13:21:34.212Z,99091.53
2023-05-02T13:24:36.741Z,99081.19
2023-05-02T13:27:41.034Z,99076.88
2023-05-02T13:30:43.650Z,99081.63
2023-05-02T13:33:47.639Z,99074.47
2023-05-02T13:36:50.208Z,99063.25
2023-05-02T13:39:52.794Z,99059.41
2023-05-02T13:42:55.316Z,99064.50
2023-05-02T13:45:57.986Z,99069.72
2023-05-02T13:49:02.454Z,99065.66
2023-05-02T13:52:05.215Z,99065.81
2023-05-02T13:55:08.412Z,99062.59
2023-05-02T13:58:11.302Z,99066.34
2023-05-02T14:01:13.959Z,99065.47
2023-05-02T14:04:18.107Z,99065.69
2023-05-02T14:07:20.791Z,99055.28
2023-05-02T14:10:23.378Z,99055.41
2023-05-02T14:13:26.268Z,99061.16
2023-05-02T14:16:30.706Z,99069.63
2023-05-02T14:19:34.793Z,99057.81
2023-05-02T14:22:37.393Z,99060.84
2023-05-02T14:25:40.098Z,99058.00
2023-05-02T14:28:42.711Z,99058.59
2023-05-02T14:31:46.064Z,99076.09
2023-05-02T14:34:50.062Z,99066.97
2023-05-02T14:37:52.542Z,99065.34
2023-05-02T14:40:55.371Z,99069.31
2023-05-02T14:43:58.083Z,99053.56
2023-05-02T14:47:00.891Z,99052.88
2023-05-02T14:50:06.307Z,99058.34
2023-05-02T14:53:09.058Z,99057.97
2023-05-02T14:56:17.136Z,99062.09
2023-05-02T14:59:20.090Z,99056.84
2023-05-02T15:02:22.787Z,99056.63
2023-05-02T15:05:26.678Z,99056.06
2023-05-02T15:08:29.312Z,99062.78
2023-05-02T15:11:31.893Z,99059.00
2023-05-02T15:14:34.494Z,99067.34
2023-05-02T15:17:36.999Z,99066.94
2023-05-02T15:20:41.051Z,99070.34
2023-05-02T15:23:43.975Z,99079.34
2023-05-02T15:26:46.673Z,99072.31
2023-05-02T15:29:49.257Z,99078.59
2023-05-02T15:32:51.853Z,99068.25
2023-05-02T15:35:57.680Z,99065.09
2023-05-02T15:39:00.212Z,99070.13
2023-05-02T15:42:03.757Z,99074.88
2023-05-02T15:45:07.491Z,99071.69
2023-05-02T15:48:10.306Z,99081.44
2023-05-02T15:51:14.058Z,99077.50
2023-05-02T15:54:20.161Z,99075.63
2023-05-02T15:57:23.045Z,99083.91
2023-05-02T16:00:25.821Z,99073.19
2023-05-02T16:03:28.587Z,99072.81
2023-05-02T16:06:33.380Z,99077.13
2023-05-02T16:09:36.304Z,99077.31
2023-05-02T16:12:38.982Z,99074.78
2023-05-02T16:15:41.534Z,99076.63
2023-05-02T16:18:44.426Z,99087.44
2023-05-02T16:21:48.357Z,99073.72
2023-05-02T16:24:50.909Z,99077.16
2023-05-02T16:27:53.610Z,99077.91
2023-05-02T16:30:56.406Z,99076.19
2023-05-02T16:33:59.090Z,99080.84
2023-05-02T16:37:03.850Z,99087.69
2023-05-02T16:40:08.088Z,99089.78
2023-05-02T16:43:10.829Z,99087.91
2023-05-02T16:46:13.465Z,99086.03
2023-05-02T16:49:16.063Z,99084.16
2023-05-02T16:52:19.955Z,99082.75
2023-05-02T16:55:22.878Z,99079.94
2023-05-02T16:58:25.648Z,99092.88
2023-05-02T17:01:28.301Z,99087.63
2023-05-02T17:04:30.839Z,99092.69
2023-05-02T17:07:34.737Z,99081.91
2023-05-02T17:10:37.307Z,99081.50
2023-05-02T17:13:40.178Z,99080.47
2023-05-02T17:16:42.701Z,99075.97
2023-05-02T17:19:45.622Z,99093.78
2023-05-02T17:22:49.416Z,99087.38
2023-05-02T17:25:52.243Z,99090.06
2023-05-02T17:28:54.698Z,99096.63
2023-05-02T17:32:00.421Z,99084.91
2023-05-02T17:35:03.085Z,99092.25
2023-05-02T17:38:07.079Z,99095.38
2023-05-02T17:41:09.656Z,99096.19
2023-05-02T17:44:12.171Z,99101.03
2023-05-02T17:47:14.791Z,99104.75
2023-05-02T17:50:17.374Z,99096.38
2023-05-02T17:53:21.305Z,99113.16
2023-05-02T17:56:23.835Z,99124.03
2023-05-02T17:59:27.345Z,99110.38
2023-05-02T18:02:30.121Z,99130.72
2023-05-02T18:05:38.326Z,99130.31
2023-05-02T18:08:42.263Z,99133.69
2023-05-02T18:11:44.894Z,99134.25
2023-05-02T18:14:48.245Z,99145.88
2023-05-02T18:17:50.649Z,99147.22
2023-05-02T18:20:53.293Z,99151.28
2023-05-02T18:23:57.581Z,99156.91
2023-05-02T18:27:00.140Z,99164.16
2023-05-02T18:30:03.605Z,99170.97
2023-05-02T18:33:06.729Z,99178.09
2023-05-02T18:36:09.595Z,99182.25
2023-05-02T18:39:14.298Z,99180.28
2023-05-02T18:42:16.866Z,99183.97
2023-05-02T18:45:19.673Z,99184.63
2023-05-02T18:48:22.549Z,99191.06
2023-05-02T18:51:25.196Z,99189.88
2023-05-02T18:54:29.264Z,99199.50
2023-05-02T18:57:33.561Z,99203.94
2023-05-02T19:00:37.209Z,99202.34
2023-05-02T19:03:39.999Z,99208.00
2023-05-02T19:06:42.777Z,99208.84
2023-05-02T19:09:46.730Z,99210.59
2023-05-02T19:12:49.298Z,99214.63
2023-05-02T19:15:51.994Z,99221.09
2023-05-02T19:18:55.846Z,99217.88
2023-05-02T19:21:58.652Z,99222.25
2023-05-02T19:25:06.587Z,99231.53
2023-05-02T19:28:09.170Z,99232.22
2023-05-02T19:31:12.192Z,99236.72
2023-05-02T19:34:14.715Z,99241.78
2023-05-02T19:37:17.255Z,99249.44
2023-05-02T19:40:21.154Z,99248.16
2023-05-02T19:43:26.315Z,99253.78
2023-05-02T19:46:30.142Z,99259.84
2023-05-02T19:49:32.853Z,99267.16
2023-05-02T19:52:37.361Z,99261.53
2023-05-02T19:55:41.509Z,99269.69
2023-05-02T19:58:44.410Z,99273.53
2023-05-02T20:01:47.425Z,99268.25
2023-05-02T20:04:50.067Z,99270.34
2023-05-02T20:07:52.832Z,99280.94
2023-05-02T20:10:56.985Z,99285.28
2023-05-02T20:13:59.796Z,99284.84
2023-05-02T20:17:02.459Z,99287.75
2023-05-02T20:20:08.107Z,99295.19
2023-05-02T20:23:10.704Z,99305.16
2023-05-02T20:26:16.344Z,99306.72
2023-05-02T20:29:18.963Z,99312.53
2023-05-02T20:32:21.625Z,99313.22
2023-05-02T20:35:24.515Z,99321.28
2023-05-02T20:38:27.039Z,99317.34
2023-05-02T20:41:32.152Z,99328.22
2023-05-02T20:44:34.856Z,99324.09
2023-05-02T20:47:37.515Z,99324.59
2023-05-02T20:50:40.102Z,99319.75
2023-05-02T20:53:42.674Z,99315.22
2023-05-02T20:56:46.596Z,99311.69
2023-05-02T20:59:49.176Z,99310.56
2023-05-02T21:02:52.197Z,99303.59
2023-05-02T21:05:55.587Z,99311.69
2023-05-02T21:08:58.447Z,99315.91
2023-05-02T21:12:02.570Z,99311.91
2023-05-02T21:15:05.989Z,99307.06
2023-05-02T21:18:08.670Z,99306.06
2023-05-02T21:21:11.186Z,99308.50
2023-05-02T21:24:13.816Z,99311.06
2023-05-02T21:27:17.688Z,99317.81
2023-05-02T21:30:20.442Z,99320.81
2023-05-02T21:33:22.976Z,99317.25
2023-05-02T21:36:25.858Z,99311.09
2023-05-02T21:39:28.396Z,99321.22
2023-05-02T21:42:32.346Z,99315.72
2023-05-02T21:45:34.832Z,99321.34
2023-05-02T21:48:37.365Z,99316.53
2023-05-02T21:51:40.642Z,99319.06
2023-05-02T21:54:46.856Z,99321.66
2023-05-02T21:57:50.832Z,99320.72
2023-05-02T22:00:53.372Z,99324.69
2023-05-02T22:03:56.529Z,99319.63
2023-05-02T22:06:59.516Z,99324.47
2023-05-02T22:10:02.401Z,99321.50
2023-05-02T22:13:09.344Z,99322.16
2023-05-02T22:16:12.110Z,99325.38
2023-05-02T22:19:15.032Z,99329.22
2023-05-02T22:22:17.588Z,99331.97
2023-05-02T22:25:20.171Z,99329.25
2023-05-02T22:28:24.008Z,99336.09
2023-05-02T22:31:27.144Z,99332.09
2023-05-02T22:34:29.696Z,99334.03
2023-05-02T22:37:32.225Z,99337.09
2023-05-02T22:40:34.804Z,99335.28
2023-05-02T22:43:38.620Z,99332.88
2023-05-02T22:46:41.305Z,99336.47
2023-05-02T22:49:44.539Z,99338.28
2023-05-02T22:52:49.149Z,99338.13
2023-05-02T22:55:52.263Z,99332.75
2023-05-02T22:58:56.204Z,99337.34
2023-05-02T23:02:00.564Z,99332.75
2023-05-02T23:05:04.087Z,99346.97
2023-05-02T23:08:06.551Z,99344.53
2023-05-02T23:11:09.029Z,99349.59
2023-05-02T23:14:12.906Z,99358.09
2023-05-02T23:17:15.469Z,99357.59
2023-05-02T23:20:20.333Z,99360.09
2023-05-02T23:23:22.815Z,99355.38
2023-05-02T23:26:25.560Z,99356.59
2023-05-02T23:29:29.429Z,99358.75
2023-05-02T23:32:32.201Z,99347.81
2023-05-02T23:35:34.969Z,99363.84
2023-05-02T23:38:37.561Z,99357.94
2023-05-02T23:41:40.288Z,99353.47
2023-05-02T23:44:44.590Z,99353.88
2023-05-02T23:47:47.460Z,99358.38
2023-05-02T23:50:50.066Z,99362.50
2023-05-02T23:53:52.553Z,99364.44
2023-05-02T23:56:56.023Z,99356.97
2023-05-02T23:59:59.938Z,99361.78
